sensor_id;sensor_type;location;lat;lon;timestamp;P1;durP1;ratioP1;P2;durP2;ratioP2
41865;SDS011;27539;43.222;27.558;2023-08-20T00:02:07;3.25;;;2.60;;
41865;SDS011;27539;43.222;27.558;2023-08-20T00:04:32;3.65;;;2.58;;
41865;SDS011;27539;43.222;27.558;2023-08-20T00:07:00;2.13;;;1.92;;
41865;SDS011;27539;43.222;27.558;2023-08-20T00:09:26;2.33;;;2.13;;
41865;SDS011;27539;43.222;27.558;2023-08-20T00:11:52;2.63;;;2.30;;
41865;SDS011;27539;43.222;27.558;2023-08-20T00:14:17;2.55;;;2.30;;
41865;SDS011;27539;43.222;27.558;2023-08-20T00:16:43;2.45;;;2.25;;
41865;SDS011;27539;43.222;27.558;2023-08-20T00:19:09;2.63;;;2.40;;
41865;SDS011;27539;43.222;27.558;2023-08-20T00:21:34;2.75;;;2.05;;
41865;SDS011;27539;43.222;27.558;2023-08-20T00:24:00;10.73;;;2.50;;
41865;SDS011;27539;43.222;27.558;2023-08-20T00:26:25;2.17;;;1.92;;
41865;SDS011;27539;43.222;27.558;2023-08-20T00:28:51;2.05;;;1.75;;
41865;SDS011;27539;43.222;27.558;2023-08-20T00:31:16;2.72;;;2.22;;
41865;SDS011;27539;43.222;27.558;2023-08-20T00:33:41;2.38;;;2.17;;
41865;SDS011;27539;43.222;27.558;2023-08-20T00:36:06;2.78;;;1.98;;
41865;SDS011;27539;43.222;27.558;2023-08-20T00:38:32;2.63;;;2.25;;
41865;SDS011;27539;43.222;27.558;2023-08-20T00:40:57;5.32;;;2.60;;
41865;SDS011;27539;43.222;27.558;2023-08-20T00:43:22;3.95;;;2.50;;
41865;SDS011;27539;43.222;27.558;2023-08-20T00:45:48;2.45;;;2.25;;
41865;SDS011;27539;43.222;27.558;2023-08-20T00:48:13;5.82;;;2.28;;
41865;SDS011;27539;43.222;27.558;2023-08-20T00:50:39;3.00;;;2.70;;
41865;SDS011;27539;43.222;27.558;2023-08-20T00:53:05;3.30;;;2.60;;
41865;SDS011;27539;43.222;27.558;2023-08-20T00:55:31;5.10;;;2.63;;
41865;SDS011;27539;43.222;27.558;2023-08-20T00:57:56;3.10;;;2.70;;
41865;SDS011;27539;43.222;27.558;2023-08-20T01:00:22;4.15;;;2.55;;
41865;SDS011;27539;43.222;27.558;2023-08-20T01:02:48;2.70;;;2.22;;
41865;SDS011;27539;43.222;27.558;2023-08-20T01:05:13;3.90;;;2.58;;
41865;SDS011;27539;43.222;27.558;2023-08-20T01:10:47;4.10;;;2.63;;
41865;SDS011;27539;43.222;27.558;2023-08-20T01:13:17;3.55;;;2.58;;
41865;SDS011;27539;43.222;27.558;2023-08-20T01:15:42;5.03;;;2.70;;
41865;SDS011;27539;43.222;27.558;2023-08-20T01:18:08;2.35;;;2.15;;
41865;SDS011;27539;43.222;27.558;2023-08-20T01:20:35;3.58;;;2.67;;
41865;SDS011;27539;43.222;27.558;2023-08-20T01:25:46;3.17;;;2.33;;
41865;SDS011;27539;43.222;27.558;2023-08-20T01:30:39;3.83;;;2.83;;
41865;SDS011;27539;43.222;27.558;2023-08-20T01:33:05;1.75;;;1.63;;
41865;SDS011;27539;43.222;27.558;2023-08-20T01:35:31;2.17;;;1.97;;
41865;SDS011;27539;43.222;27.558;2023-08-20T01:37:56;2.75;;;2.17;;
41865;SDS011;27539;43.222;27.558;2023-08-20T01:40:21;3.17;;;2.53;;
41865;SDS011;27539;43.222;27.558;2023-08-20T01:42:47;5.10;;;2.70;;
41865;SDS011;27539;43.222;27.558;2023-08-20T01:45:12;3.05;;;2.58;;
41865;SDS011;27539;43.222;27.558;2023-08-20T01:47:37;2.58;;;2.17;;
41865;SDS011;27539;43.222;27.558;2023-08-20T01:50:03;2.28;;;1.92;;
41865;SDS011;27539;43.222;27.558;2023-08-20T01:52:28;4.15;;;1.98;;
41865;SDS011;27539;43.222;27.558;2023-08-20T01:54:57;1.90;;;1.77;;
41865;SDS011;27539;43.222;27.558;2023-08-20T01:57:22;3.80;;;2.05;;
41865;SDS011;27539;43.222;27.558;2023-08-20T01:59:48;2.42;;;1.98;;
41865;SDS011;27539;43.222;27.558;2023-08-20T02:02:13;2.20;;;2.00;;
41865;SDS011;27539;43.222;27.558;2023-08-20T02:04:38;3.67;;;2.33;;
41865;SDS011;27539;43.222;27.558;2023-08-20T02:07:04;3.08;;;2.70;;
41865;SDS011;27539;43.222;27.558;2023-08-20T02:09:29;4.82;;;2.88;;
41865;SDS011;27539;43.222;27.558;2023-08-20T02:11:54;2.25;;;1.98;;
41865;SDS011;27539;43.222;27.558;2023-08-20T02:14:19;2.47;;;2.28;;
41865;SDS011;27539;43.222;27.558;2023-08-20T02:16:45;7.68;;;3.08;;
41865;SDS011;27539;43.222;27.558;2023-08-20T02:19:11;2.07;;;1.87;;
41865;SDS011;27539;43.222;27.558;2023-08-20T02:21:36;2.90;;;2.00;;
41865;SDS011;27539;43.222;27.558;2023-08-20T02:24:02;4.50;;;2.57;;
41865;SDS011;27539;43.222;27.558;2023-08-20T02:26:27;2.72;;;2.22;;
41865;SDS011;27539;43.222;27.558;2023-08-20T02:28:52;3.33;;;2.47;;
41865;SDS011;27539;43.222;27.558;2023-08-20T02:31:18;2.28;;;2.10;;
41865;SDS011;27539;43.222;27.558;2023-08-20T02:33:43;2.55;;;2.30;;
41865;SDS011;27539;43.222;27.558;2023-08-20T02:36:08;4.95;;;2.60;;
41865;SDS011;27539;43.222;27.558;2023-08-20T02:38:34;2.53;;;2.33;;
41865;SDS011;27539;43.222;27.558;2023-08-20T02:41:00;1.98;;;1.88;;
41865;SDS011;27539;43.222;27.558;2023-08-20T02:43:25;4.38;;;2.60;;
41865;SDS011;27539;43.222;27.558;2023-08-20T02:45:51;3.13;;;2.72;;
41865;SDS011;27539;43.222;27.558;2023-08-20T02:48:17;4.82;;;2.53;;
41865;SDS011;27539;43.222;27.558;2023-08-20T02:50:42;2.40;;;2.20;;
41865;SDS011;27539;43.222;27.558;2023-08-20T02:53:08;2.50;;;2.30;;
41865;SDS011;27539;43.222;27.558;2023-08-20T02:55:33;13.05;;;2.70;;
41865;SDS011;27539;43.222;27.558;2023-08-20T02:57:58;3.53;;;2.67;;
41865;SDS011;27539;43.222;27.558;2023-08-20T03:00:24;4.40;;;2.40;;
41865;SDS011;27539;43.222;27.558;2023-08-20T03:02:49;7.15;;;2.45;;
41865;SDS011;27539;43.222;27.558;2023-08-20T03:05:14;2.92;;;2.63;;
41865;SDS011;27539;43.222;27.558;2023-08-20T03:07:39;3.22;;;2.10;;
41865;SDS011;27539;43.222;27.558;2023-08-20T03:10:05;3.88;;;2.80;;
41865;SDS011;27539;43.222;27.558;2023-08-20T03:12:31;3.35;;;2.67;;
41865;SDS011;27539;43.222;27.558;2023-08-20T03:14:56;1.88;;;1.77;;
41865;SDS011;27539;43.222;27.558;2023-08-20T03:17:21;3.03;;;2.38;;
41865;SDS011;27539;43.222;27.558;2023-08-20T03:19:57;2.80;;;2.58;;
41865;SDS011;27539;43.222;27.558;2023-08-20T03:22:23;2.65;;;2.45;;
41865;SDS011;27539;43.222;27.558;2023-08-20T03:24:48;3.13;;;2.28;;
41865;SDS011;27539;43.222;27.558;2023-08-20T03:27:14;13.05;;;3.17;;
41865;SDS011;27539;43.222;27.558;2023-08-20T03:29:39;4.60;;;2.97;;
41865;SDS011;27539;43.222;27.558;2023-08-20T03:32:05;3.90;;;2.50;;
41865;SDS011;27539;43.222;27.558;2023-08-20T03:34:30;2.20;;;2.03;;
41865;SDS011;27539;43.222;27.558;2023-08-20T03:36:55;3.28;;;2.90;;
41865;SDS011;27539;43.222;27.558;2023-08-20T03:39:21;5.45;;;2.65;;
41865;SDS011;27539;43.222;27.558;2023-08-20T03:41:46;3.08;;;2.63;;
41865;SDS011;27539;43.222;27.558;2023-08-20T03:44:11;2.95;;;2.22;;
41865;SDS011;27539;43.222;27.558;2023-08-20T03:46:37;3.58;;;2.45;;
41865;SDS011;27539;43.222;27.558;2023-08-20T03:49:02;2.65;;;2.45;;
41865;SDS011;27539;43.222;27.558;2023-08-20T03:51:27;2.55;;;2.35;;
41865;SDS011;27539;43.222;27.558;2023-08-20T03:53:53;3.15;;;2.60;;
41865;SDS011;27539;43.222;27.558;2023-08-20T03:56:18;2.47;;;2.22;;
41865;SDS011;27539;43.222;27.558;2023-08-20T03:58:43;2.63;;;2.28;;
41865;SDS011;27539;43.222;27.558;2023-08-20T04:01:09;5.17;;;2.83;;
41865;SDS011;27539;43.222;27.558;2023-08-20T04:03:34;2.95;;;2.38;;
41865;SDS011;27539;43.222;27.558;2023-08-20T04:05:59;2.47;;;2.27;;
41865;SDS011;27539;43.222;27.558;2023-08-20T04:08:24;2.55;;;1.95;;
41865;SDS011;27539;43.222;27.558;2023-08-20T04:10:51;3.28;;;2.13;;
41865;SDS011;27539;43.222;27.558;2023-08-20T04:15:42;1.87;;;1.73;;
41865;SDS011;27539;43.222;27.558;2023-08-20T04:18:07;3.63;;;2.63;;
41865;SDS011;27539;43.222;27.558;2023-08-20T04:20:33;3.17;;;2.45;;
41865;SDS011;27539;43.222;27.558;2023-08-20T04:22:58;3.33;;;2.77;;
41865;SDS011;27539;43.222;27.558;2023-08-20T04:25:24;2.53;;;2.13;;
41865;SDS011;27539;43.222;27.558;2023-08-20T04:27:49;7.57;;;2.43;;
41865;SDS011;27539;43.222;27.558;2023-08-20T04:30:14;1.70;;;1.60;;
41865;SDS011;27539;43.222;27.558;2023-08-20T04:32:39;3.50;;;2.13;;
41865;SDS011;27539;43.222;27.558;2023-08-20T04:35:05;2.37;;;2.03;;
41865;SDS011;27539;43.222;27.558;2023-08-20T04:37:31;2.87;;;2.33;;
41865;SDS011;27539;43.222;27.558;2023-08-20T04:39:56;2.23;;;2.03;;
41865;SDS011;27539;43.222;27.558;2023-08-20T04:42:21;3.90;;;2.43;;
41865;SDS011;27539;43.222;27.558;2023-08-20T04:44:46;2.30;;;2.00;;
41865;SDS011;27539;43.222;27.558;2023-08-20T04:47:12;1.90;;;1.80;;
41865;SDS011;27539;43.222;27.558;2023-08-20T04:49:40;2.17;;;1.85;;
41865;SDS011;27539;43.222;27.558;2023-08-20T04:52:05;4.07;;;2.17;;
41865;SDS011;27539;43.222;27.558;2023-08-20T04:54:31;2.20;;;1.80;;
41865;SDS011;27539;43.222;27.558;2023-08-20T04:56:56;2.70;;;1.97;;
41865;SDS011;27539;43.222;27.558;2023-08-20T04:59:21;4.10;;;2.40;;
41865;SDS011;27539;43.222;27.558;2023-08-20T05:01:47;2.53;;;2.05;;
41865;SDS011;27539;43.222;27.558;2023-08-20T05:04:12;2.10;;;1.90;;
41865;SDS011;27539;43.222;27.558;2023-08-20T05:06:38;2.13;;;1.93;;
41865;SDS011;27539;43.222;27.558;2023-08-20T05:09:03;1.75;;;1.65;;
41865;SDS011;27539;43.222;27.558;2023-08-20T05:11:28;1.87;;;1.43;;
41865;SDS011;27539;43.222;27.558;2023-08-20T05:13:56;1.92;;;1.83;;
41865;SDS011;27539;43.222;27.558;2023-08-20T05:16:22;2.00;;;1.77;;
41865;SDS011;27539;43.222;27.558;2023-08-20T05:18:47;3.80;;;2.47;;
41865;SDS011;27539;43.222;27.558;2023-08-20T05:21:12;1.90;;;1.50;;
41865;SDS011;27539;43.222;27.558;2023-08-20T05:23:39;1.37;;;1.27;;
41865;SDS011;27539;43.222;27.558;2023-08-20T05:26:05;3.53;;;2.45;;
41865;SDS011;27539;43.222;27.558;2023-08-20T05:28:30;2.10;;;1.90;;
41865;SDS011;27539;43.222;27.558;2023-08-20T05:30:55;2.80;;;2.57;;
41865;SDS011;27539;43.222;27.558;2023-08-20T05:33:21;2.90;;;2.33;;
41865;SDS011;27539;43.222;27.558;2023-08-20T05:35:47;2.13;;;1.93;;
41865;SDS011;27539;43.222;27.558;2023-08-20T05:38:13;1.97;;;1.83;;
41865;SDS011;27539;43.222;27.558;2023-08-20T05:40:38;1.60;;;1.50;;
41865;SDS011;27539;43.222;27.558;2023-08-20T05:43:03;3.30;;;2.30;;
41865;SDS011;27539;43.222;27.558;2023-08-20T05:45:29;1.80;;;1.70;;
41865;SDS011;27539;43.222;27.558;2023-08-20T05:47:54;1.73;;;1.63;;
41865;SDS011;27539;43.222;27.558;2023-08-20T05:50:19;2.03;;;1.73;;
41865;SDS011;27539;43.222;27.558;2023-08-20T05:52:44;2.10;;;1.97;;
41865;SDS011;27539;43.222;27.558;2023-08-20T05:55:10;2.17;;;1.97;;
41865;SDS011;27539;43.222;27.558;2023-08-20T05:57:36;1.75;;;1.48;;
41865;SDS011;27539;43.222;27.558;2023-08-20T06:00:03;2.63;;;2.17;;
41865;SDS011;27539;43.222;27.558;2023-08-20T06:02:29;3.28;;;2.20;;
41865;SDS011;27539;43.222;27.558;2023-08-20T06:04:54;1.90;;;1.80;;
41865;SDS011;27539;43.222;27.558;2023-08-20T06:07:20;4.30;;;2.37;;
41865;SDS011;27539;43.222;27.558;2023-08-20T06:09:45;1.83;;;1.70;;
41865;SDS011;27539;43.222;27.558;2023-08-20T06:12:11;2.53;;;2.00;;
41865;SDS011;27539;43.222;27.558;2023-08-20T06:14:36;3.20;;;1.63;;
41865;SDS011;27539;43.222;27.558;2023-08-20T06:17:01;1.60;;;1.50;;
41865;SDS011;27539;43.222;27.558;2023-08-20T06:19:27;2.13;;;1.73;;
41865;SDS011;27539;43.222;27.558;2023-08-20T06:21:53;3.23;;;1.87;;
41865;SDS011;27539;43.222;27.558;2023-08-20T06:24:18;2.10;;;1.63;;
41865;SDS011;27539;43.222;27.558;2023-08-20T06:26:43;1.83;;;1.67;;
41865;SDS011;27539;43.222;27.558;2023-08-20T06:29:09;3.47;;;1.73;;
41865;SDS011;27539;43.222;27.558;2023-08-20T06:31:35;2.27;;;2.00;;
41865;SDS011;27539;43.222;27.558;2023-08-20T06:34:00;3.37;;;1.87;;
41865;SDS011;27539;43.222;27.558;2023-08-20T06:36:25;2.07;;;1.47;;
41865;SDS011;27539;43.222;27.558;2023-08-20T06:38:51;1.77;;;1.63;;
41865;SDS011;27539;43.222;27.558;2023-08-20T06:41:17;1.07;;;1.00;;
41865;SDS011;27539;43.222;27.558;2023-08-20T06:43:42;1.92;;;1.50;;
41865;SDS011;27539;43.222;27.558;2023-08-20T06:46:08;2.30;;;1.70;;
41865;SDS011;27539;43.222;27.558;2023-08-20T06:48:33;2.30;;;1.90;;
41865;SDS011;27539;43.222;27.558;2023-08-20T06:50:58;3.10;;;1.90;;
41865;SDS011;27539;43.222;27.558;2023-08-20T06:53:23;1.17;;;1.10;;
41865;SDS011;27539;43.222;27.558;2023-08-20T06:55:49;1.77;;;1.53;;
41865;SDS011;27539;43.222;27.558;2023-08-20T06:58:14;1.63;;;1.40;;
41865;SDS011;27539;43.222;27.558;2023-08-20T07:00:40;1.43;;;1.23;;
41865;SDS011;27539;43.222;27.558;2023-08-20T07:03:05;1.53;;;1.43;;
41865;SDS011;27539;43.222;27.558;2023-08-20T07:05:30;2.90;;;1.70;;
41865;SDS011;27539;43.222;27.558;2023-08-20T07:07:55;3.90;;;2.30;;
41865;SDS011;27539;43.222;27.558;2023-08-20T07:10:21;1.60;;;1.50;;
41865;SDS011;27539;43.222;27.558;2023-08-20T07:12:46;2.97;;;2.30;;
41865;SDS011;27539;43.222;27.558;2023-08-20T07:15:11;1.83;;;1.50;;
41865;SDS011;27539;43.222;27.558;2023-08-20T07:17:37;1.20;;;1.10;;
41865;SDS011;27539;43.222;27.558;2023-08-20T07:22:28;2.75;;;1.45;;
41865;SDS011;27539;43.222;27.558;2023-08-20T07:24:54;1.60;;;1.40;;
41865;SDS011;27539;43.222;27.558;2023-08-20T07:27:19;1.40;;;1.10;;
41865;SDS011;27539;43.222;27.558;2023-08-20T07:29:45;2.13;;;1.17;;
41865;SDS011;27539;43.222;27.558;2023-08-20T07:32:10;5.13;;;2.00;;
41865;SDS011;27539;43.222;27.558;2023-08-20T07:34:36;1.25;;;1.15;;
41865;SDS011;27539;43.222;27.558;2023-08-20T07:37:02;1.97;;;1.77;;
41865;SDS011;27539;43.222;27.558;2023-08-20T07:39:27;1.43;;;1.20;;
41865;SDS011;27539;43.222;27.558;2023-08-20T07:41:53;1.30;;;1.20;;
41865;SDS011;27539;43.222;27.558;2023-08-20T07:44:18;1.67;;;1.20;;
41865;SDS011;27539;43.222;27.558;2023-08-20T07:46:43;1.37;;;1.23;;
41865;SDS011;27539;43.222;27.558;2023-08-20T07:49:09;2.30;;;1.33;;
41865;SDS011;27539;43.222;27.558;2023-08-20T07:51:34;4.10;;;1.30;;
41865;SDS011;27539;43.222;27.558;2023-08-20T07:53:59;1.60;;;1.30;;
41865;SDS011;27539;43.222;27.558;2023-08-20T07:56:25;1.55;;;1.38;;
41865;SDS011;27539;43.222;27.558;2023-08-20T07:58:51;1.37;;;1.27;;
41865;SDS011;27539;43.222;27.558;2023-08-20T08:01:16;1.60;;;1.50;;
41865;SDS011;27539;43.222;27.558;2023-08-20T08:03:42;1.33;;;1.17;;
41865;SDS011;27539;43.222;27.558;2023-08-20T08:06:07;1.50;;;1.40;;
41865;SDS011;27539;43.222;27.558;2023-08-20T08:08:32;2.00;;;1.20;;
41865;SDS011;27539;43.222;27.558;2023-08-20T08:10:57;3.33;;;1.90;;
41865;SDS011;27539;43.222;27.558;2023-08-20T08:13:23;3.10;;;2.00;;
41865;SDS011;27539;43.222;27.558;2023-08-20T08:15:48;3.63;;;1.40;;
41865;SDS011;27539;43.222;27.558;2023-08-20T08:18:14;4.60;;;1.70;;
41865;SDS011;27539;43.222;27.558;2023-08-20T08:20:39;14.57;;;1.23;;
41865;SDS011;27539;43.222;27.558;2023-08-20T08:23:04;2.63;;;1.53;;
41865;SDS011;27539;43.222;27.558;2023-08-20T08:25:30;2.93;;;1.57;;
41865;SDS011;27539;43.222;27.558;2023-08-20T08:27:55;1.23;;;1.13;;
41865;SDS011;27539;43.222;27.558;2023-08-20T08:30:20;1.87;;;1.43;;
41865;SDS011;27539;43.222;27.558;2023-08-20T08:32:46;1.53;;;1.43;;
41865;SDS011;27539;43.222;27.558;2023-08-20T08:35:11;1.80;;;1.30;;
41865;SDS011;27539;43.222;27.558;2023-08-20T08:37:37;1.50;;;1.40;;
41865;SDS011;27539;43.222;27.558;2023-08-20T08:40:02;1.60;;;1.37;;
41865;SDS011;27539;43.222;27.558;2023-08-20T08:42:30;1.58;;;1.40;;
41865;SDS011;27539;43.222;27.558;2023-08-20T08:44:55;1.97;;;1.33;;
41865;SDS011;27539;43.222;27.558;2023-08-20T08:47:21;2.33;;;1.52;;
41865;SDS011;27539;43.222;27.558;2023-08-20T08:49:47;1.83;;;1.27;;
41865;SDS011;27539;43.222;27.558;2023-08-20T08:52:13;2.08;;;1.60;;
41865;SDS011;27539;43.222;27.558;2023-08-20T08:54:38;1.57;;;1.30;;
41865;SDS011;27539;43.222;27.558;2023-08-20T08:57:04;1.93;;;1.70;;
41865;SDS011;27539;43.222;27.558;2023-08-20T08:59:30;1.25;;;1.15;;
41865;SDS011;27539;43.222;27.558;2023-08-20T09:01:55;1.73;;;1.40;;
41865;SDS011;27539;43.222;27.558;2023-08-20T09:04:22;2.05;;;1.67;;
41865;SDS011;27539;43.222;27.558;2023-08-20T09:06:47;1.23;;;1.13;;
41865;SDS011;27539;43.222;27.558;2023-08-20T09:09:13;1.50;;;1.40;;
41865;SDS011;27539;43.222;27.558;2023-08-20T09:11:39;1.50;;;1.40;;
41865;SDS011;27539;43.222;27.558;2023-08-20T09:14:04;3.10;;;1.60;;
41865;SDS011;27539;43.222;27.558;2023-08-20T09:16:30;1.67;;;1.37;;
41865;SDS011;27539;43.222;27.558;2023-08-20T09:18:57;3.40;;;1.98;;
41865;SDS011;27539;43.222;27.558;2023-08-20T09:21:26;2.42;;;1.77;;
41865;SDS011;27539;43.222;27.558;2023-08-20T09:23:53;1.42;;;1.27;;
41865;SDS011;27539;43.222;27.558;2023-08-20T09:26:18;2.17;;;1.10;;
41865;SDS011;27539;43.222;27.558;2023-08-20T09:28:45;2.03;;;1.60;;
41865;SDS011;27539;43.222;27.558;2023-08-20T09:31:11;2.15;;;1.58;;
41865;SDS011;27539;43.222;27.558;2023-08-20T09:33:38;2.53;;;1.55;;
41865;SDS011;27539;43.222;27.558;2023-08-20T09:36:13;1.40;;;1.30;;
41865;SDS011;27539;43.222;27.558;2023-08-20T09:38:38;1.63;;;1.53;;
41865;SDS011;27539;43.222;27.558;2023-08-20T09:41:03;2.47;;;1.37;;
41865;SDS011;27539;43.222;27.558;2023-08-20T09:43:30;1.60;;;1.45;;
41865;SDS011;27539;43.222;27.558;2023-08-20T09:45:55;2.00;;;1.50;;
41865;SDS011;27539;43.222;27.558;2023-08-20T09:48:22;2.88;;;1.58;;
41865;SDS011;27539;43.222;27.558;2023-08-20T09:50:51;7.90;;;3.05;;
41865;SDS011;27539;43.222;27.558;2023-08-20T09:55:42;1.17;;;1.03;;
41865;SDS011;27539;43.222;27.558;2023-08-20T09:58:08;2.15;;;1.25;;
41865;SDS011;27539;43.222;27.558;2023-08-20T10:00:34;1.47;;;1.37;;
41865;SDS011;27539;43.222;27.558;2023-08-20T10:02:59;3.60;;;1.85;;
41865;SDS011;27539;43.222;27.558;2023-08-20T10:05:25;1.63;;;1.53;;
41865;SDS011;27539;43.222;27.558;2023-08-20T10:07:50;2.60;;;1.50;;
41865;SDS011;27539;43.222;27.558;2023-08-20T10:10:17;0.77;;;0.77;;
41865;SDS011;27539;43.222;27.558;2023-08-20T10:12:42;1.23;;;1.13;;
41865;SDS011;27539;43.222;27.558;2023-08-20T10:15:10;1.58;;;1.45;;
41865;SDS011;27539;43.222;27.558;2023-08-20T10:17:36;4.68;;;1.42;;
41865;SDS011;27539;43.222;27.558;2023-08-20T10:20:02;2.05;;;1.30;;
41865;SDS011;27539;43.222;27.558;2023-08-20T10:22:32;1.40;;;1.30;;
41865;SDS011;27539;43.222;27.558;2023-08-20T10:24:58;0.90;;;0.90;;
41865;SDS011;27539;43.222;27.558;2023-08-20T10:29:52;1.30;;;1.17;;
41865;SDS011;27539;43.222;27.558;2023-08-20T10:32:18;0.80;;;0.80;;
41865;SDS011;27539;43.222;27.558;2023-08-20T10:34:44;0.93;;;0.83;;
41865;SDS011;27539;43.222;27.558;2023-08-20T10:37:14;1.35;;;0.90;;
41865;SDS011;27539;43.222;27.558;2023-08-20T10:39:40;1.53;;;1.03;;
41865;SDS011;27539;43.222;27.558;2023-08-20T10:42:08;2.72;;;1.20;;
41865;SDS011;27539;43.222;27.558;2023-08-20T10:47:18;1.65;;;0.90;;
41865;SDS011;27539;43.222;27.558;2023-08-20T10:49:43;0.90;;;0.77;;
41865;SDS011;27539;43.222;27.558;2023-08-20T10:52:09;0.77;;;0.50;;
41865;SDS011;27539;43.222;27.558;2023-08-20T10:54:34;1.07;;;0.97;;
41865;SDS011;27539;43.222;27.558;2023-08-20T10:56:59;1.23;;;0.70;;
41865;SDS011;27539;43.222;27.558;2023-08-20T10:59:25;0.73;;;0.37;;
41865;SDS011;27539;43.222;27.558;2023-08-20T11:01:52;0.47;;;0.47;;
41865;SDS011;27539;43.222;27.558;2023-08-20T11:04:18;3.72;;;1.00;;
41865;SDS011;27539;43.222;27.558;2023-08-20T11:06:44;6.20;;;1.00;;
41865;SDS011;27539;43.222;27.558;2023-08-20T11:09:10;1.75;;;0.65;;
41865;SDS011;27539;43.222;27.558;2023-08-20T11:11:37;0.32;;;0.32;;
41865;SDS011;27539;43.222;27.558;2023-08-20T11:14:06;0.70;;;0.50;;
41865;SDS011;27539;43.222;27.558;2023-08-20T11:16:32;1.05;;;0.70;;
41865;SDS011;27539;43.222;27.558;2023-08-20T11:18:57;0.43;;;0.37;;
41865;SDS011;27539;43.222;27.558;2023-08-20T11:21:23;0.53;;;0.50;;
41865;SDS011;27539;43.222;27.558;2023-08-20T11:23:48;10.10;;;0.80;;
41865;SDS011;27539;43.222;27.558;2023-08-20T11:26:14;0.43;;;0.43;;
41865;SDS011;27539;43.222;27.558;2023-08-20T11:28:44;0.57;;;0.57;;
41865;SDS011;27539;43.222;27.558;2023-08-20T11:31:09;0.47;;;0.47;;
41865;SDS011;27539;43.222;27.558;2023-08-20T11:33:35;0.53;;;0.40;;
41865;SDS011;27539;43.222;27.558;2023-08-20T11:36:00;0.40;;;0.40;;
41865;SDS011;27539;43.222;27.558;2023-08-20T11:38:26;1.63;;;0.70;;
41865;SDS011;27539;43.222;27.558;2023-08-20T11:40:52;0.40;;;0.40;;
41865;SDS011;27539;43.222;27.558;2023-08-20T11:43:17;0.57;;;0.57;;
41865;SDS011;27539;43.222;27.558;2023-08-20T11:45:46;0.40;;;0.40;;
41865;SDS011;27539;43.222;27.558;2023-08-20T11:48:12;0.30;;;0.30;;
41865;SDS011;27539;43.222;27.558;2023-08-20T11:50:37;0.27;;;0.27;;
41865;SDS011;27539;43.222;27.558;2023-08-20T11:53:03;1.30;;;0.83;;
41865;SDS011;27539;43.222;27.558;2023-08-20T11:55:29;0.40;;;0.40;;
41865;SDS011;27539;43.222;27.558;2023-08-20T12:00:26;0.50;;;0.50;;
41865;SDS011;27539;43.222;27.558;2023-08-20T12:02:55;0.57;;;0.57;;
41865;SDS011;27539;43.222;27.558;2023-08-20T12:05:27;0.63;;;0.63;;
41865;SDS011;27539;43.222;27.558;2023-08-20T12:07:56;1.45;;;0.25;;
41865;SDS011;27539;43.222;27.558;2023-08-20T12:10:23;0.60;;;0.60;;
41865;SDS011;27539;43.222;27.558;2023-08-20T12:12:48;6.32;;;0.85;;
41865;SDS011;27539;43.222;27.558;2023-08-20T12:15:14;0.80;;;0.50;;
41865;SDS011;27539;43.222;27.558;2023-08-20T12:17:39;0.37;;;0.37;;
41865;SDS011;27539;43.222;27.558;2023-08-20T12:20:05;0.80;;;0.63;;
41865;SDS011;27539;43.222;27.558;2023-08-20T12:22:37;1.40;;;0.73;;
41865;SDS011;27539;43.222;27.558;2023-08-20T12:25:02;0.93;;;0.70;;
41865;SDS011;27539;43.222;27.558;2023-08-20T12:27:28;0.65;;;0.60;;
41865;SDS011;27539;43.222;27.558;2023-08-20T12:29:54;0.47;;;0.47;;
41865;SDS011;27539;43.222;27.558;2023-08-20T12:32:19;0.40;;;0.40;;
41865;SDS011;27539;43.222;27.558;2023-08-20T12:34:44;0.73;;;0.50;;
41865;SDS011;27539;43.222;27.558;2023-08-20T12:37:09;1.17;;;0.57;;
41865;SDS011;27539;43.222;27.558;2023-08-20T12:39:35;0.97;;;0.87;;
41865;SDS011;27539;43.222;27.558;2023-08-20T12:42:00;0.97;;;0.67;;
41865;SDS011;27539;43.222;27.558;2023-08-20T12:44:26;2.03;;;0.57;;
41865;SDS011;27539;43.222;27.558;2023-08-20T12:46:51;0.40;;;0.40;;
41865;SDS011;27539;43.222;27.558;2023-08-20T12:49:16;1.27;;;0.90;;
41865;SDS011;27539;43.222;27.558;2023-08-20T12:51:42;0.87;;;0.87;;
41865;SDS011;27539;43.222;27.558;2023-08-20T12:54:07;0.77;;;0.53;;
41865;SDS011;27539;43.222;27.558;2023-08-20T12:56:33;0.30;;;0.28;;
41865;SDS011;27539;43.222;27.558;2023-08-20T12:58:59;1.15;;;0.70;;
41865;SDS011;27539;43.222;27.558;2023-08-20T13:01:24;2.03;;;0.63;;
41865;SDS011;27539;43.222;27.558;2023-08-20T13:03:50;0.87;;;0.87;;
41865;SDS011;27539;43.222;27.558;2023-08-20T13:06:15;0.40;;;0.40;;
41865;SDS011;27539;43.222;27.558;2023-08-20T13:08:40;0.30;;;0.30;;
41865;SDS011;27539;43.222;27.558;2023-08-20T13:13:32;0.77;;;0.40;;
41865;SDS011;27539;43.222;27.558;2023-08-20T13:15:59;1.50;;;1.00;;
41865;SDS011;27539;43.222;27.558;2023-08-20T13:18:25;1.00;;;0.68;;
41865;SDS011;27539;43.222;27.558;2023-08-20T13:20:51;0.70;;;0.70;;
41865;SDS011;27539;43.222;27.558;2023-08-20T13:23:17;0.70;;;0.70;;
41865;SDS011;27539;43.222;27.558;2023-08-20T13:25:42;0.73;;;0.73;;
41865;SDS011;27539;43.222;27.558;2023-08-20T13:28:08;0.45;;;0.43;;
41865;SDS011;27539;43.222;27.558;2023-08-20T13:30:33;0.47;;;0.47;;
41865;SDS011;27539;43.222;27.558;2023-08-20T13:32:59;0.83;;;0.47;;
41865;SDS011;27539;43.222;27.558;2023-08-20T13:35:24;0.50;;;0.50;;
41865;SDS011;27539;43.222;27.558;2023-08-20T13:37:49;0.57;;;0.57;;
41865;SDS011;27539;43.222;27.558;2023-08-20T13:40:15;0.40;;;0.40;;
41865;SDS011;27539;43.222;27.558;2023-08-20T13:42:40;0.80;;;0.70;;
41865;SDS011;27539;43.222;27.558;2023-08-20T13:45:06;1.47;;;0.70;;
41865;SDS011;27539;43.222;27.558;2023-08-20T13:47:31;0.98;;;0.75;;
41865;SDS011;27539;43.222;27.558;2023-08-20T13:49:56;0.60;;;0.60;;
41865;SDS011;27539;43.222;27.558;2023-08-20T13:52:22;0.80;;;0.80;;
41865;SDS011;27539;43.222;27.558;2023-08-20T13:54:47;0.73;;;0.73;;
41865;SDS011;27539;43.222;27.558;2023-08-20T13:57:12;0.73;;;0.73;;
41865;SDS011;27539;43.222;27.558;2023-08-20T13:59:38;1.10;;;0.63;;
41865;SDS011;27539;43.222;27.558;2023-08-20T14:02:03;0.95;;;0.70;;
41865;SDS011;27539;43.222;27.558;2023-08-20T14:04:29;0.60;;;0.60;;
41865;SDS011;27539;43.222;27.558;2023-08-20T14:06:54;0.80;;;0.80;;
41865;SDS011;27539;43.222;27.558;2023-08-20T14:09:19;1.43;;;0.90;;
41865;SDS011;27539;43.222;27.558;2023-08-20T14:11:45;0.67;;;0.67;;
41865;SDS011;27539;43.222;27.558;2023-08-20T14:14:11;0.65;;;0.65;;
41865;SDS011;27539;43.222;27.558;2023-08-20T14:16:36;2.07;;;0.93;;
41865;SDS011;27539;43.222;27.558;2023-08-20T14:19:01;1.73;;;1.10;;
41865;SDS011;27539;43.222;27.558;2023-08-20T14:21:27;1.70;;;1.17;;
41865;SDS011;27539;43.222;27.558;2023-08-20T14:23:52;0.67;;;0.67;;
41865;SDS011;27539;43.222;27.558;2023-08-20T14:26:18;0.73;;;0.67;;
41865;SDS011;27539;43.222;27.558;2023-08-20T14:28:43;2.00;;;0.60;;
41865;SDS011;27539;43.222;27.558;2023-08-20T14:31:08;0.60;;;0.60;;
41865;SDS011;27539;43.222;27.558;2023-08-20T14:33:34;0.93;;;0.80;;
41865;SDS011;27539;43.222;27.558;2023-08-20T14:35:59;0.43;;;0.40;;
41865;SDS011;27539;43.222;27.558;2023-08-20T14:38:24;0.50;;;0.50;;
41865;SDS011;27539;43.222;27.558;2023-08-20T14:40:50;2.97;;;1.02;;
41865;SDS011;27539;43.222;27.558;2023-08-20T14:43:16;1.10;;;0.67;;
41865;SDS011;27539;43.222;27.558;2023-08-20T14:45:41;0.80;;;0.80;;
41865;SDS011;27539;43.222;27.558;2023-08-20T14:48:06;0.60;;;0.60;;
41865;SDS011;27539;43.222;27.558;2023-08-20T14:50:32;2.67;;;0.83;;